Time;durP1;ratioP1;P1;durP2;ratioP2;P2;SDS_P1;SDS_P2;PMS_P1;PMS_P2;Temp;Humidity;BMP_temperature;BMP_pressure;BME280_temperature;BME280_humidity;BME280_pressure;Samples;Min_cycle;Max_cycle;Signal;HPM_P1;HPM_P2
2022/09/10 00:00:59;;;;;;;0.60;0.60;;;16.20;99.90;;;;;;5055145;28;20175;-57
2022/09/10 00:03:26;;;;;;;0.50;0.50;;;16.30;99.90;;;;;;5055058;28;20184;-58
2022/09/10 00:05:52;;;;;;;0.73;0.73;;;16.20;99.90;;;;;;5055195;28;20167;-57
2022/09/10 00:08:19;;;;;;;0.90;0.77;;;16.20;99.90;;;;;;5053931;28;20270;-57
2022/09/10 00:10:50;;;;;;;1.10;1.00;;;16.10;99.90;;;;;;5054870;28;20637;-57
2022/09/10 00:13:19;;;;;;;0.60;0.60;;;16.20;99.90;;;;;;5055040;28;20193;-58
2022/09/10 00:15:48;;;;;;;2.42;1.15;;;16.20;99.90;;;;;;5055203;28;20198;-56
2022/09/10 00:18:16;;;;;;;0.50;0.45;;;16.20;99.90;;;;;;5054908;28;20207;-58
2022/09/10 00:20:49;;;;;;;0.50;0.50;;;16.20;99.90;;;;;;5054953;28;20592;-57
2022/09/10 00:23:17;;;;;;;0.50;0.50;;;16.30;99.90;;;;;;5054815;28;20175;-58
2022/09/10 00:25:44;;;;;;;1.02;0.47;;;16.30;99.90;;;;;;5054666;28;20179;-58
2022/09/10 00:28:10;;;;;;;0.57;0.50;;;16.30;99.90;;;;;;5053405;28;20510;-57
2022/09/10 00:30:41;;;;;;;0.43;0.43;;;16.20;99.90;;;;;;5054590;28;20517;-57
2022/09/10 00:33:07;;;;;;;0.43;0.43;;;16.30;99.90;;;;;;5054523;28;20591;-58
2022/09/10 00:35:33;;;;;;;0.63;0.63;;;16.30;99.90;;;;;;5053330;28;20266;-57
2022/09/10 00:37:59;;;;;;;0.40;0.40;;;16.30;99.90;;;;;;5054405;28;20199;-57
2022/09/10 00:40:25;;;;;;;0.50;0.50;;;16.40;99.90;;;;;;5054362;28;20214;-58
2022/09/10 00:42:50;;;;;;;0.50;0.50;;;16.30;99.90;;;;;;5054516;28;20659;-58
2022/09/10 00:45:21;;;;;;;0.57;0.50;;;16.30;99.90;;;;;;5054554;28;20660;-58
2022/09/10 00:47:50;;;;;;;0.60;0.60;;;16.30;99.90;;;;;;5054316;28;20171;-58
2022/09/10 00:50:33;;;;;;;0.73;0.70;;;16.30;99.90;;;;;;5054279;28;20210;-58
2022/09/10 00:53:06;;;;;;;0.80;0.55;;;16.40;99.90;;;;;;5054249;28;20175;-57
2022/09/10 00:55:34;;;;;;;0.40;0.40;;;16.40;99.90;;;;;;5054342;28;20179;-58
2022/09/10 00:58:03;;;;;;;0.63;0.50;;;16.40;99.90;;;;;;5053924;28;20167;-58
2022/09/10 01:00:30;;;;;;;0.55;0.52;;;16.50;99.90;;;;;;5054232;28;20175;-58
2022/09/10 01:02:57;;;;;;;0.73;0.70;;;16.50;99.90;;;;;;5053608;28;20611;-58
2022/09/10 01:05:24;;;;;;;0.80;0.73;;;16.40;99.90;;;;;;5052737;28;20178;-58
2022/09/10 01:07:51;;;;;;;0.80;0.80;;;16.40;99.90;;;;;;5052647;28;20168;-58
2022/09/10 01:10:22;;;;;;;1.92;0.73;;;16.40;99.90;;;;;;5053895;28;20183;-58
2022/09/10 01:13:37;;;;;;;0.68;0.60;;;16.40;99.90;;;;;;5053927;28;20233;-57
2022/09/10 01:16:16;;;;;;;0.68;0.68;;;16.40;99.90;;;;;;5033875;28;20661;-58
2022/09/10 01:18:56;;;;;;;0.70;0.70;;;16.30;99.90;;;;;;5053755;28;20213;-58
2022/09/10 01:21:50;;;;;;;0.60;0.60;;;16.40;99.90;;;;;;5053775;28;20647;-57
2022/09/10 01:24:31;;;;;;;1.00;0.90;;;16.30;99.90;;;;;;5052431;28;20240;-58
2022/09/10 01:27:23;;;;;;;0.98;0.98;;;16.30;99.90;;;;;;5053691;28;20167;-57
2022/09/10 01:30:02;;;;;;;1.80;1.70;;;16.30;99.90;;;;;;5043483;28;20222;-57
2022/09/10 01:32:38;;;;;;;1.02;1.00;;;16.30;99.90;;;;;;5053454;28;20171;-57
2022/09/10 01:35:12;;;;;;;1.05;1.00;;;16.30;99.90;;;;;;5053652;28;20167;-58
2022/09/10 01:37:42;;;;;;;1.20;1.10;;;16.30;99.90;;;;;;5053546;28;20190;-57
2022/09/10 01:40:09;;;;;;;2.47;1.63;;;16.30;99.90;;;;;;5053272;28;20199;-58
2022/09/10 01:42:38;;;;;;;1.13;1.02;;;16.30;99.90;;;;;;5052073;28;20211;-58
2022/09/10 01:45:05;;;;;;;1.55;1.40;;;16.40;99.90;;;;;;5053510;28;20294;-58
2022/09/10 01:47:40;;;;;;;1.15;0.90;;;16.50;99.90;;;;;;5053206;28;20268;-58
2022/09/10 01:50:18;;;;;;;2.10;1.05;;;16.50;99.90;;;;;;5053180;28;20262;-58
2022/09/10 01:53:02;;;;;;;0.98;0.85;;;16.50;99.90;;;;;;5053274;28;20174;-58
2022/09/10 01:55:40;;;;;;;1.30;1.20;;;16.40;99.90;;;;;;5053163;28;20258;-58
2022/09/10 01:58:24;;;;;;;1.45;1.30;;;16.40;99.90;;;;;;5053237;28;20213;-58
2022/09/10 02:01:31;;;;;;;1.35;1.25;;;16.30;99.90;;;;;;5053244;28;20221;-58
2022/09/10 02:04:02;;;;;;;1.23;1.13;;;16.30;99.90;;;;;;5053091;28;20257;-57
2022/09/10 02:06:29;;;;;;;1.30;1.20;;;16.30;99.90;;;;;;5053268;28;20171;-58
2022/09/10 02:08:57;;;;;;;1.10;1.00;;;16.20;99.90;;;;;;5053156;28;20190;-57
2022/09/10 02:11:22;;;;;;;2.00;1.55;;;16.20;99.90;;;;;;5053053;28;20270;-57
2022/09/10 02:13:48;;;;;;;1.75;1.65;;;16.30;99.90;;;;;;5053208;28;20242;-58
2022/09/10 02:16:24;;;;;;;1.65;1.40;;;16.20;99.90;;;;;;5057072;28;20183;-58
2022/09/10 02:18:50;;;;;;;1.33;1.23;;;16.20;99.90;;;;;;5056956;28;20240;-57
2022/09/10 02:21:17;;;;;;;1.60;1.40;;;16.30;99.90;;;;;;5056392;28;20631;-58
2022/09/10 02:23:47;;;;;;;2.10;1.50;;;16.30;99.90;;;;;;5056984;28;20217;-58
2022/09/10 02:26:14;;;;;;;1.63;1.52;;;16.30;99.90;;;;;;5057098;28;20284;-58
2022/09/10 02:28:44;;;;;;;1.75;1.50;;;16.30;99.90;;;;;;5057360;28;20584;-58
2022/09/10 02:31:10;;;;;;;2.97;1.55;;;16.30;99.90;;;;;;5056864;28;20640;-57
2022/09/10 02:33:36;;;;;;;2.38;1.60;;;16.40;99.90;;;;;;5057133;28;20183;-57
2022/09/10 02:36:02;;;;;;;2.53;1.70;;;16.40;99.90;;;;;;5056874;28;20263;-58
2022/09/10 02:38:28;;;;;;;1.60;1.48;;;16.40;99.90;;;;;;5055402;28;20207;-58
2022/09/10 02:40:58;;;;;;;1.50;1.38;;;16.40;99.90;;;;;;5055496;28;20190;-58
2022/09/10 02:43:25;;;;;;;1.50;1.40;;;16.40;99.90;;;;;;5056531;28;20258;-58
2022/09/10 02:45:55;;;;;;;1.40;1.30;;;16.40;99.90;;;;;;5055545;28;20192;-58
2022/09/10 02:48:24;;;;;;;2.20;1.80;;;16.40;99.90;;;;;;5056848;28;20175;-57
2022/09/10 02:50:49;;;;;;;1.90;1.67;;;16.40;99.90;;;;;;5056893;28;20177;-58
2022/09/10 02:53:15;;;;;;;2.10;1.90;;;16.40;99.90;;;;;;5056482;28;20258;-57
2022/09/10 02:55:45;;;;;;;1.52;1.40;;;16.40;99.90;;;;;;5055356;28;20180;-58
2022/09/10 02:58:12;;;;;;;2.00;1.83;;;16.40;99.90;;;;;;5056195;28;20203;-58
2022/09/10 03:00:38;;;;;;;1.63;1.52;;;16.30;99.90;;;;;;5055316;28;20167;-57
2022/09/10 03:03:04;;;;;;;2.58;1.88;;;16.40;99.90;;;;;;5056396;28;20183;-58
2022/09/10 03:05:30;;;;;;;3.10;1.90;;;16.40;99.90;;;;;;5056334;28;20189;-57
2022/09/10 03:07:56;;;;;;;2.30;2.10;;;16.30;99.90;;;;;;5056184;28;20261;-58
2022/09/10 03:10:22;;;;;;;2.00;1.60;;;16.30;99.90;;;;;;5056186;28;20541;-58
2022/09/10 03:12:48;;;;;;;1.58;1.48;;;16.40;99.90;;;;;;5054824;28;20190;-58
2022/09/10 03:15:14;;;;;;;1.40;1.30;;;16.30;99.90;;;;;;5054802;28;20198;-57
2022/09/10 03:17:40;;;;;;;2.50;2.13;;;16.30;99.90;;;;;;5055070;28;20172;-58
2022/09/10 03:20:06;;;;;;;1.63;1.52;;;16.30;99.90;;;;;;5055850;28;20211;-58
2022/09/10 03:22:32;;;;;;;1.95;1.75;;;16.30;99.90;;;;;;5055984;28;20179;-58
2022/09/10 03:24:58;;;;;;;1.92;1.67;;;16.40;99.90;;;;;;5055580;28;20628;-57
2022/09/10 03:27:25;;;;;;;2.00;1.73;;;16.40;99.90;;;;;;5055740;28;20186;-57
2022/09/10 03:29:50;;;;;;;2.53;1.90;;;16.30;99.90;;;;;;5055913;28;20175;-57
2022/09/10 03:32:16;;;;;;;1.75;1.50;;;16.30;99.90;;;;;;5056078;28;20178;-58
2022/09/10 03:34:43;;;;;;;1.80;1.70;;;16.30;99.90;;;;;;5055765;28;20198;-58
2022/09/10 03:37:09;;;;;;;2.20;1.50;;;16.30;99.90;;;;;;5055701;28;20170;-56
2022/09/10 03:39:35;;;;;;;1.92;1.40;;;16.30;99.90;;;;;;5055433;28;20250;-58
2022/09/10 03:42:04;;;;;;;2.15;1.95;;;16.30;99.90;;;;;;5055449;28;20203;-57
2022/09/10 03:44:32;;;;;;;2.35;1.70;;;16.30;99.90;;;;;;5055631;28;20191;-60
2022/09/10 03:47:01;;;;;;;2.17;1.80;;;16.20;99.90;;;;;;5055554;28;20171;-58
2022/09/10 03:49:27;;;;;;;2.65;1.90;;;16.20;99.90;;;;;;5054369;28;20262;-58
2022/09/10 03:51:53;;;;;;;2.05;1.75;;;16.20;99.90;;;;;;5054081;28;20190;-58
2022/09/10 03:54:20;;;;;;;2.20;1.90;;;16.20;99.90;;;;;;5055329;28;20176;-57
2022/09/10 03:56:45;;;;;;;3.47;2.25;;;16.20;99.90;;;;;;5055425;28;20179;-57
2022/09/10 03:59:12;;;;;;;2.10;1.90;;;16.20;99.90;;;;;;5055277;28;20302;-57
2022/09/10 04:01:38;;;;;;;2.80;2.00;;;16.20;99.90;;;;;;5055007;28;20587;-57
2022/09/10 04:04:04;;;;;;;2.85;2.55;;;16.20;99.90;;;;;;5055140;28;20175;-58
2022/09/10 04:06:33;;;;;;;2.90;2.35;;;16.10;99.90;;;;;;5055130;28;20528;-58
2022/09/10 04:09:00;;;;;;;2.10;1.90;;;16.20;99.90;;;;;;5053784;28;20201;-57
2022/09/10 04:11:26;;;;;;;2.45;2.20;;;16.20;99.90;;;;;;5054861;28;20635;-57
2022/09/10 04:13:53;;;;;;;2.70;2.05;;;16.20;99.90;;;;;;5054600;28;20175;-57
2022/09/10 04:16:20;;;;;;;2.05;1.85;;;16.20;99.90;;;;;;5055116;28;20171;-57
2022/09/10 04:18:45;;;;;;;2.97;1.88;;;16.20;99.90;;;;;;5054803;28;20203;-57
2022/09/10 04:21:11;;;;;;;2.35;2.15;;;16.10;99.90;;;;;;5053626;28;20171;-58
2022/09/10 04:23:40;;;;;;;3.92;2.63;;;16.20;99.90;;;;;;5054680;28;20279;-58
2022/09/10 04:26:17;;;;;;;3.80;2.88;;;16.20;99.90;;;;;;5053555;28;20207;-57
2022/09/10 04:28:43;;;;;;;3.42;2.70;;;16.30;99.90;;;;;;5054538;28;20182;-58
2022/09/10 04:31:09;;;;;;;1.88;1.70;;;16.30;99.90;;;;;;5054922;28;20167;-57
2022/09/10 04:33:35;;;;;;;3.20;2.60;;;16.30;99.90;;;;;;5053659;28;20197;-57
2022/09/10 04:36:03;;;;;;;3.67;2.78;;;16.20;99.90;;;;;;5054361;28;20262;-58
2022/09/10 04:38:29;;;;;;;2.83;2.38;;;16.30;99.90;;;;;;5053877;28;20210;-57
2022/09/10 04:41:01;;;;;;;3.25;2.92;;;16.30;99.90;;;;;;5053297;28;20183;-57
2022/09/10 04:43:27;;;;;;;3.53;2.40;;;16.20;99.90;;;;;;5054668;28;20183;-58
2022/09/10 04:45:54;;;;;;;3.53;2.88;;;16.30;99.90;;;;;;5054144;28;20183;-58
2022/09/10 04:48:21;;;;;;;3.38;2.53;;;16.30;99.90;;;;;;5054250;28;20210;-58
2022/09/10 04:50:47;;;;;;;3.50;2.72;;;16.30;99.90;;;;;;5054114;28;20521;-57
2022/09/10 04:53:13;;;;;;;2.78;2.47;;;16.30;99.90;;;;;;5054286;28;20163;-58
2022/09/10 04:55:41;;;;;;;3.35;2.63;;;16.30;99.90;;;;;;5054258;28;20625;-57
2022/09/10 04:58:08;;;;;;;3.70;2.67;;;16.30;99.90;;;;;;5054094;28;20220;-58
2022/09/10 05:00:33;;;;;;;3.40;2.45;;;16.30;99.90;;;;;;5054190;28;20171;-57
2022/09/10 05:02:59;;;;;;;4.18;3.08;;;16.20;99.90;;;;;;5053932;28;20250;-56
2022/09/10 05:05:25;;;;;;;3.60;3.03;;;16.30;99.90;;;;;;5053866;28;20222;-59
2022/09/10 05:07:52;;;;;;;3.22;2.78;;;16.20;99.90;;;;;;5053794;28;20168;-59
2022/09/10 05:10:20;;;;;;;4.65;3.00;;;16.20;99.90;;;;;;5053880;28;20190;-59
2022/09/10 05:12:47;;;;;;;3.58;2.80;;;16.20;99.90;;;;;;5053800;28;20233;-59
2022/09/10 05:15:12;;;;;;;3.15;2.70;;;16.10;99.90;;;;;;5054003;28;20190;-61
2022/09/10 05:17:38;;;;;;;3.67;2.78;;;16.10;99.90;;;;;;5053626;28;20168;-59
2022/09/10 05:20:06;;;;;;;3.50;2.85;;;16.10;99.90;;;;;;5053476;28;20305;-59
2022/09/10 05:22:33;;;;;;;3.63;2.78;;;16.10;99.90;;;;;;5053695;28;20659;-59
2022/09/10 05:24:59;;;;;;;3.95;2.55;;;16.20;99.90;;;;;;5052680;28;20260;-59
2022/09/10 05:27:24;;;;;;;2.70;2.45;;;16.20;99.90;;;;;;5053559;28;20595;-59
2022/09/10 05:29:50;;;;;;;2.85;2.38;;;16.20;99.90;;;;;;5053565;28;20183;-59
2022/09/10 05:32:17;;;;;;;4.60;3.22;;;16.10;99.90;;;;;;5052205;28;20175;-59
2022/09/10 05:34:47;;;;;;;2.40;2.10;;;16.10;99.90;;;;;;5036002;28;20233;-60
2022/09/10 05:37:17;;;;;;;2.97;2.65;;;16.20;99.90;;;;;;5052949;28;20182;-59
2022/09/10 05:39:44;;;;;;;2.85;2.25;;;16.10;99.90;;;;;;5052065;28;20288;-59
2022/09/10 05:42:10;;;;;;;3.60;2.90;;;16.10;99.90;;;;;;5052110;28;20201;-60
2022/09/10 05:44:35;;;;;;;3.83;2.60;;;16.10;99.90;;;;;;5053112;28;20258;-60
2022/09/10 05:47:01;;;;;;;2.85;2.42;;;16.10;99.90;;;;;;5051957;28;20250;-59
2022/09/10 05:49:26;;;;;;;3.97;2.80;;;16.10;99.90;;;;;;5052165;28;20183;-60
2022/09/10 05:51:52;;;;;;;3.10;2.67;;;16.10;99.90;;;;;;5053270;28;20182;-58
2022/09/10 05:54:18;;;;;;;4.28;3.22;;;16.00;99.90;;;;;;5052138;28;20233;-58
2022/09/10 05:56:43;;;;;;;3.53;2.80;;;16.10;99.90;;;;;;5053169;28;20189;-59
2022/09/10 05:59:09;;;;;;;3.15;2.42;;;16.20;99.90;;;;;;5051858;28;20565;-59
2022/09/10 06:01:36;;;;;;;3.17;2.50;;;16.20;99.90;;;;;;5034895;28;20175;-59
2022/09/10 06:04:02;;;;;;;2.78;2.15;;;16.20;99.90;;;;;;5051569;28;20222;-59
2022/09/10 06:06:28;;;;;;;3.33;2.55;;;16.20;99.90;;;;;;5052706;28;20167;-59
2022/09/10 06:08:54;;;;;;;3.17;2.88;;;16.10;99.90;;;;;;5052681;28;20205;-59
2022/09/10 06:11:21;;;;;;;2.60;2.00;;;16.10;99.90;;;;;;5050007;28;20189;-59
2022/09/10 06:13:47;;;;;;;3.13;2.72;;;16.10;99.90;;;;;;5050970;28;20175;-59
2022/09/10 06:16:13;;;;;;;2.80;2.50;;;16.10;99.90;;;;;;5052719;28;20277;-58
2022/09/10 06:18:40;;;;;;;2.15;1.95;;;16.10;99.90;;;;;;5048083;28;20203;-57
2022/09/10 06:21:17;;;;;;;3.13;2.83;;;16.10;99.90;;;;;;5050073;28;20171;-58
2022/09/10 06:23:44;;;;;;;2.28;2.08;;;16.10;99.90;;;;;;5052642;28;20190;-57
2022/09/10 06:26:12;;;;;;;2.47;2.10;;;16.10;99.90;;;;;;5052559;28;20210;-57
2022/09/10 06:28:38;;;;;;;3.05;2.47;;;16.10;99.90;;;;;;5052420;28;20221;-57
2022/09/10 06:31:05;;;;;;;2.90;2.53;;;16.10;99.90;;;;;;5051455;28;20539;-58
2022/09/10 06:33:32;;;;;;;3.40;2.72;;;16.10;99.90;;;;;;5052822;28;20537;-58
2022/09/10 06:35:59;;;;;;;3.17;2.88;;;16.10;99.90;;;;;;5052775;28;20203;-58
2022/09/10 06:38:31;;;;;;;3.03;2.22;;;16.20;99.90;;;;;;5051373;28;20285;-57
2022/09/10 06:40:59;;;;;;;2.08;1.85;;;16.20;99.90;;;;;;5051346;28;20647;-58
2022/09/10 06:43:26;;;;;;;2.83;2.53;;;16.20;99.90;;;;;;5052807;28;20258;-57
2022/09/10 06:45:52;;;;;;;2.85;2.20;;;16.10;99.90;;;;;;5052609;28;20180;-58
2022/09/10 06:48:20;;;;;;;2.88;2.47;;;16.10;99.90;;;;;;5052555;28;20249;-58
2022/09/10 06:51:00;;;;;;;3.80;2.25;;;16.20;99.90;;;;;;5052075;28;20183;-58
2022/09/10 06:53:28;;;;;;;2.22;2.03;;;16.20;99.90;;;;;;5052375;28;20167;-57
2022/09/10 06:55:54;;;;;;;3.08;2.10;;;16.20;99.90;;;;;;5052384;28;20637;-58
2022/09/10 06:58:23;;;;;;;1.73;1.63;;;16.20;99.90;;;;;;5051329;28;20230;-58
2022/09/10 07:00:49;;;;;;;3.22;2.55;;;16.20;99.90;;;;;;5053731;28;20167;-58
2022/09/10 07:03:17;;;;;;;3.42;2.20;;;16.20;99.90;;;;;;5055320;28;20186;-58
2022/09/10 07:05:44;;;;;;;2.00;1.83;;;16.20;99.90;;;;;;5055468;28;20629;-58
2022/09/10 07:08:15;;;;;;;3.08;2.13;;;16.20;99.90;;;;;;5054640;28;20258;-58
2022/09/10 07:10:43;;;;;;;2.83;1.90;;;16.10;99.90;;;;;;5055727;28;20225;-58
2022/09/10 07:13:11;;;;;;;2.35;2.05;;;16.20;99.90;;;;;;5055562;28;20206;-58
2022/09/10 07:15:45;;;;;;;2.42;2.17;;;16.30;99.90;;;;;;5055496;28;20191;-55
2022/09/10 07:18:13;;;;;;;1.98;1.77;;;16.30;99.90;;;;;;5055587;28;20632;-58
2022/09/10 07:20:42;;;;;;;3.25;2.20;;;16.30;99.90;;;;;;5055192;28;20256;-58
2022/09/10 07:23:12;;;;;;;2.90;2.05;;;16.30;99.90;;;;;;5055930;28;20255;-58
2022/09/10 07:25:39;;;;;;;2.80;2.22;;;16.40;99.90;;;;;;5055680;28;20199;-58
2022/09/10 07:28:05;;;;;;;2.67;2.15;;;16.30;99.90;;;;;;5055875;28;20180;-58
2022/09/10 07:30:34;;;;;;;2.50;2.08;;;16.30;99.90;;;;;;5055435;28;20172;-58
2022/09/10 07:33:00;;;;;;;2.85;1.85;;;16.40;99.90;;;;;;5054321;28;20250;-58
2022/09/10 07:35:25;;;;;;;2.15;1.77;;;16.40;99.90;;;;;;5055449;28;20262;-57
2022/09/10 07:37:51;;;;;;;2.75;2.40;;;16.50;99.90;;;;;;5055374;28;20183;-59
2022/09/10 07:40:17;;;;;;;3.25;2.33;;;16.60;99.90;;;;;;5055459;28;20253;-58
2022/09/10 07:42:43;;;;;;;2.70;1.90;;;16.60;99.90;;;;;;5055152;28;20744;-58
2022/09/10 07:45:14;;;;;;;2.00;1.70;;;16.50;99.90;;;;;;5055591;28;20190;-58
2022/09/10 07:47:43;;;;;;;2.78;2.10;;;16.60;99.90;;;;;;5053589;28;20625;-57
2022/09/10 07:50:09;;;;;;;2.88;2.50;;;16.60;99.90;;;;;;5055126;28;20698;-57
2022/09/10 07:52:35;;;;;;;3.13;2.03;;;16.50;99.90;;;;;;5052034;28;20191;-57
2022/09/10 07:55:01;;;;;;;3.95;2.17;;;16.70;99.90;;;;;;5053625;28;20175;-58
2022/09/10 07:57:28;;;;;;;2.85;2.13;;;16.60;99.90;;;;;;5055366;28;20301;-56
2022/09/10 07:59:54;;;;;;;2.40;1.98;;;16.60;99.90;;;;;;5055121;28;20218;-58
2022/09/10 08:02:20;;;;;;;3.50;2.33;;;16.60;99.90;;;;;;5054605;28;20167;-58
2022/09/10 08:04:46;;;;;;;4.05;2.50;;;16.60;99.90;;;;;;5055244;28;20262;-58
2022/09/10 08:07:12;;;;;;;2.92;1.83;;;16.70;99.90;;;;;;5055266;28;20640;-58
2022/09/10 08:09:38;;;;;;;2.30;2.10;;;16.80;99.90;;;;;;5054950;28;20171;-58
2022/09/10 08:12:06;;;;;;;2.72;2.03;;;16.80;99.90;;;;;;5053922;28;20258;-58
2022/09/10 08:14:32;;;;;;;2.55;2.13;;;16.80;99.90;;;;;;5054710;28;20282;-57
2022/09/10 08:16:58;;;;;;;2.83;2.17;;;16.90;99.90;;;;;;5054752;28;20330;-57
2022/09/10 08:19:23;;;;;;;3.33;2.55;;;17.00;99.90;;;;;;5054532;28;20557;-57
2022/09/10 08:21:49;;;;;;;2.40;2.00;;;17.00;99.90;;;;;;5055059;28;20229;-59
2022/09/10 08:24:15;;;;;;;3.08;2.47;;;17.00;99.90;;;;;;5051189;28;20648;-58
2022/09/10 08:26:41;;;;;;;2.65;2.17;;;17.00;99.90;;;;;;5052704;28;20202;-58
2022/09/10 08:29:07;;;;;;;2.08;1.88;;;17.00;99.90;;;;;;5053726;28;20266;-54
2022/09/10 08:31:33;;;;;;;2.40;2.10;;;17.00;99.90;;;;;;5053631;28;20183;-59
2022/09/10 08:34:00;;;;;;;2.33;1.83;;;17.00;99.90;;;;;;5053337;28;20179;-58
2022/09/10 08:36:26;;;;;;;2.90;2.33;;;17.00;99.90;;;;;;5053176;28;20171;-58
2022/09/10 08:38:53;;;;;;;3.33;2.72;;;17.00;99.90;;;;;;5054242;28;20199;-58
2022/09/10 08:41:40;;;;;;;4.03;2.47;;;17.00;99.90;;;;;;5054302;28;20211;-58
2022/09/10 08:44:08;;;;;;;2.75;2.22;;;17.10;99.90;;;;;;5052805;28;20183;-58
2022/09/10 08:47:16;;;;;;;3.40;2.17;;;17.00;99.90;;;;;;5054450;28;20385;-58
2022/09/10 08:49:53;;;;;;;3.47;2.58;;;17.10;99.90;;;;;;5054134;28;20190;-57
2022/09/10 08:52:30;;;;;;;2.88;2.42;;;17.00;99.90;;;;;;5054148;28;20171;-58
2022/09/10 08:55:16;;;;;;;2.67;2.08;;;17.10;99.90;;;;;;5054567;28;20206;-58
2022/09/10 08:57:51;;;;;;;3.05;2.53;;;17.10;99.90;;;;;;5054232;28;20168;-58
2022/09/10 09:00:21;;;;;;;4.18;2.55;;;17.10;99.90;;;;;;5052835;28;20268;-58
2022/09/10 09:03:11;;;;;;;3.05;2.38;;;17.10;99.90;;;;;;5052722;28;20163;-58
2022/09/10 09:05:59;;;;;;;2.88;2.42;;;17.20;99.90;;;;;;5054123;28;20671;-58
2022/09/10 09:08:29;;;;;;;3.70;2.50;;;17.10;99.90;;;;;;5053872;28;20167;-58
2022/09/10 09:11:09;;;;;;;2.50;2.20;;;17.20;99.90;;;;;;5053955;28;20183;-57
2022/09/10 09:14:06;;;;;;;3.15;2.70;;;17.10;99.90;;;;;;5054091;28;20202;-58
2022/09/10 09:16:58;;;;;;;2.17;1.80;;;17.20;99.90;;;;;;5053904;28;20548;-57
2022/09/10 09:19:50;;;;;;;2.47;2.17;;;17.20;99.90;;;;;;5053607;28;20221;-58
2022/09/10 09:22:15;;;;;;;3.05;2.40;;;17.20;99.90;;;;;;5053713;28;20159;-56
2022/09/10 09:24:54;;;;;;;3.90;2.70;;;17.20;99.90;;;;;;5052444;28;20167;-57
2022/09/10 09:27:20;;;;;;;2.65;2.10;;;17.20;99.90;;;;;;5052419;28;20182;-58
2022/09/10 09:29:58;;;;;;;2.88;2.20;;;17.20;99.90;;;;;;5053453;28;20179;-57
2022/09/10 09:32:25;;;;;;;3.75;2.40;;;17.20;99.90;;;;;;5052309;28;20210;-58
2022/09/10 09:35:06;;;;;;;2.58;2.38;;;17.30;99.90;;;;;;5053417;28;20262;-58
2022/09/10 09:37:33;;;;;;;2.92;2.20;;;17.30;99.90;;;;;;5053549;28;20175;-58
2022/09/10 09:40:14;;;;;;;3.42;2.90;;;17.30;99.90;;;;;;5053350;28;20211;-58
2022/09/10 09:43:26;;;;;;;3.38;2.75;;;17.30;99.90;;;;;;5053681;28;20199;-57
2022/09/10 09:45:52;;;;;;;2.25;1.85;;;17.30;99.90;;;;;;5011363;28;20224;-57
2022/09/10 09:48:19;;;;;;;3.03;2.20;;;17.30;99.90;;;;;;4995323;28;20207;-58
2022/09/10 09:50:48;;;;;;;2.35;2.08;;;17.30;99.90;;;;;;5033537;28;20187;-58
2022/09/10 09:53:24;;;;;;;2.30;2.10;;;17.30;99.90;;;;;;5053565;28;20171;-58
2022/09/10 09:55:52;;;;;;;2.15;1.90;;;17.30;99.90;;;;;;5053345;28;20198;-58
2022/09/10 09:58:22;;;;;;;1.77;1.50;;;17.30;99.90;;;;;;5053078;28;20167;-58
2022/09/10 10:00:51;;;;;;;2.58;1.67;;;17.40;99.90;;;;;;5053138;28;20190;-58
2022/09/10 10:03:24;;;;;;;2.42;1.73;;;17.40;99.90;;;;;;5053043;28;20660;-57
2022/09/10 10:05:59;;;;;;;2.20;1.60;;;17.40;99.90;;;;;;5053484;28;20644;-58
2022/09/10 10:08:29;;;;;;;1.83;1.50;;;17.40;99.90;;;;;;5053157;28;20186;-58
2022/09/10 10:10:56;;;;;;;2.13;1.92;;;17.40;99.90;;;;;;5053187;28;20527;-57
2022/09/10 10:13:22;;;;;;;1.95;1.67;;;17.30;99.90;;;;;;5035314;28;20171;-58
2022/09/10 10:15:49;;;;;;;1.55;1.45;;;17.30;99.90;;;;;;5052819;28;20187;-58
2022/09/10 10:18:21;;;;;;;1.90;1.55;;;17.40;99.90;;;;;;5052014;28;20183;-57
2022/09/10 10:21:07;;;;;;;1.77;1.45;;;17.40;99.90;;;;;;5052926;28;20203;-58
2022/09/10 10:23:37;;;;;;;1.80;1.55;;;17.40;99.90;;;;;;5052776;28;20232;-58
2022/09/10 10:26:29;;;;;;;2.00;1.50;;;17.50;99.90;;;;;;5052877;28;20174;-58
2022/09/10 10:29:05;;;;;;;1.52;1.30;;;17.50;99.90;;;;;;5052900;28;20325;-58
2022/09/10 10:31:39;;;;;;;2.45;1.77;;;17.60;99.90;;;;;;5053006;28;20186;-58
2022/09/10 10:34:23;;;;;;;2.17;1.90;;;17.50;99.90;;;;;;5052856;28;20171;-58
2022/09/10 10:37:13;;;;;;;1.73;1.48;;;17.60;99.90;;;;;;5056585;28;20537;-58
2022/09/10 10:39:50;;;;;;;2.42;1.58;;;17.60;99.90;;;;;;5056779;28;20268;-58
2022/09/10 10:42:24;;;;;;;1.73;1.05;;;17.60;99.90;;;;;;5056710;28;20229;-57
2022/09/10 10:45:11;;;;;;;1.33;1.20;;;17.60;99.90;;;;;;5056695;28;20680;-58
2022/09/10 10:47:51;;;;;;;1.60;1.40;;;17.60;99.90;;;;;;5056599;28;20178;-58
2022/09/10 10:50:48;;;;;;;1.38;1.25;;;17.50;99.90;;;;;;5056609;28;20177;-56
2022/09/10 10:53:20;;;;;;;1.90;1.70;;;17.50;99.90;;;;;;5037086;28;20237;-58
2022/09/10 10:56:01;;;;;;;1.55;1.40;;;17.40;99.90;;;;;;5056270;28;20183;-57
2022/09/10 10:59:03;;;;;;;1.88;1.25;;;17.40;99.90;;;;;;5056378;28;20214;-58
2022/09/10 11:01:36;;;;;;;1.98;1.23;;;17.40;99.90;;;;;;5048781;28;20605;-57
2022/09/10 11:04:22;;;;;;;1.65;1.50;;;17.40;99.90;;;;;;5056765;28;20179;-58
2022/09/10 11:07:13;;;;;;;1.08;0.90;;;17.40;99.90;;;;;;5056334;28;20200;-58
2022/09/10 11:10:00;;;;;;;1.30;1.20;;;17.40;99.90;;;;;;5056177;28;20222;-58
2022/09/10 11:12:55;;;;;;;1.33;1.20;;;17.50;99.90;;;;;;5056245;28;20171;-58
2022/09/10 11:15:36;;;;;;;1.58;1.48;;;17.40;99.90;;;;;;5056002;28;20195;-58
2022/09/10 11:18:08;;;;;;;1.73;1.30;;;17.40;99.90;;;;;;5056048;28;20163;-58
2022/09/10 11:20:54;;;;;;;1.42;1.20;;;17.40;99.90;;;;;;5056483;28;20179;-57
2022/09/10 11:23:39;;;;;;;1.60;1.38;;;17.40;99.90;;;;;;5054989;28;20206;-58
2022/09/10 11:26:20;;;;;;;1.30;1.20;;;17.40;99.90;;;;;;5055983;28;20536;-58
2022/09/10 11:29:02;;;;;;;1.70;1.27;;;17.40;99.90;;;;;;5055775;28;20179;-57
2022/09/10 11:31:40;;;;;;;1.73;1.50;;;17.40;99.90;;;;;;5054845;28;20179;-58
2022/09/10 11:34:23;;;;;;;1.48;1.35;;;17.40;99.90;;;;;;5056111;28;20171;-58
2022/09/10 11:37:12;;;;;;;1.90;1.60;;;17.40;99.90;;;;;;5055799;28;20177;-58
2022/09/10 11:39:44;;;;;;;1.88;1.33;;;17.40;99.90;;;;;;5034245;28;20588;-58
2022/09/10 11:42:17;;;;;;;2.00;1.80;;;17.40;99.90;;;;;;5055689;28;20168;-58
2022/09/10 11:45:01;;;;;;;2.45;1.70;;;17.40;99.90;;;;;;5055734;28;20571;-57
2022/09/10 11:47:35;;;;;;;2.38;1.67;;;17.40;99.90;;;;;;5055311;28;20178;-59
2022/09/10 11:50:27;;;;;;;1.98;1.50;;;17.40;99.90;;;;;;5055593;28;20175;-59
2022/09/10 11:52:55;;;;;;;2.22;2.03;;;17.40;99.90;;;;;;5055325;28;20636;-58
2022/09/10 11:55:51;;;;;;;1.58;1.30;;;17.50;99.90;;;;;;5054100;28;20189;-58
2022/09/10 11:58:21;;;;;;;1.80;1.40;;;17.50;99.90;;;;;;5039116;28;20183;-57
2022/09/10 12:01:04;;;;;;;2.00;1.58;;;17.50;99.90;;;;;;5055321;28;20182;-58
2022/09/10 12:03:54;;;;;;;1.50;1.40;;;17.50;99.90;;;;;;5055445;28;20258;-58
2022/09/10 12:06:48;;;;;;;1.80;1.70;;;17.50;99.90;;;;;;5055144;28;20170;-58
2022/09/10 12:09:28;;;;;;;1.80;1.48;;;17.50;99.90;;;;;;5028117;28;20223;-58
2022/09/10 12:12:13;;;;;;;1.60;1.50;;;17.50;99.90;;;;;;5055469;28;20171;-57
2022/09/10 12:14:40;;;;;;;2.15;1.40;;;17.40;99.90;;;;;;5053523;28;20194;-58
2022/09/10 12:17:40;;;;;;;2.55;1.63;;;17.30;99.90;;;;;;5053847;28;20502;-58
2022/09/10 12:20:20;;;;;;;3.42;1.85;;;17.30;99.90;;;;;;5032506;28;20234;-58
2022/09/10 12:22:52;;;;;;;1.85;1.42;;;17.30;99.90;;;;;;5054863;28;20163;-59
2022/09/10 12:25:18;;;;;;;1.02;0.80;;;17.30;99.90;;;;;;5054363;28;20175;-58
2022/09/10 12:27:49;;;;;;;0.50;0.50;;;17.30;99.90;;;;;;5055141;28;20176;-58
2022/09/10 12:30:26;;;;;;;1.17;1.00;;;17.20;99.90;;;;;;5054702;28;20203;-58
2022/09/10 12:32:54;;;;;;;0.82;0.68;;;17.00;99.90;;;;;;5054677;28;20205;-58
2022/09/10 12:35:31;;;;;;;0.70;0.60;;;16.90;99.90;;;;;;5053306;28;20183;-58
2022/09/10 12:38:34;;;;;;;0.30;0.30;;;16.90;99.90;;;;;;5054494;28;20237;-58
2022/09/10 12:41:01;;;;;;;0.82;0.60;;;16.90;99.90;;;;;;5054551;28;20185;-59
2022/09/10 12:43:38;;;;;;;0.40;0.40;;;16.90;99.90;;;;;;5054393;28;20189;-58
2022/09/10 12:46:13;;;;;;;0.52;0.52;;;16.90;99.90;;;;;;5054533;28;20187;-57
2022/09/10 12:48:47;;;;;;;0.98;0.80;;;17.00;99.90;;;;;;5054340;28;20170;-58
2022/09/10 12:51:19;;;;;;;1.10;0.90;;;17.10;99.90;;;;;;5054297;28;20170;-58
2022/09/10 12:54:14;;;;;;;0.60;0.60;;;17.10;99.90;;;;;;5054183;28;20198;-58
2022/09/10 12:57:11;;;;;;;0.80;0.80;;;17.30;99.90;;;;;;5053156;28;20665;-57
2022/09/10 13:00:10;;;;;;;1.20;0.88;;;17.40;99.90;;;;;;5053747;28;20215;-58
2022/09/10 13:02:40;;;;;;;1.20;1.00;;;17.50;99.90;;;;;;5052955;28;20628;-58
2022/09/10 13:05:24;;;;;;;1.10;1.00;;;17.70;99.90;;;;;;5054485;28;20629;-58
2022/09/10 13:08:09;;;;;;;1.00;0.90;;;17.70;99.90;;;;;;5054011;28;20221;-58
2022/09/10 13:10:35;;;;;;;1.50;1.38;;;17.80;99.90;;;;;;5053639;28;20177;-58
2022/09/10 13:13:06;;;;;;;1.25;1.00;;;17.80;99.90;;;;;;5052981;28;20167;-58